sensor_id;sensor_type;location;lat;lon;timestamp;temperature;humidity
18611;DHT22;9435;52.122;5.502;2023-02-08T00:00:53;-1.40;99.90
18611;DHT22;9435;52.122;5.502;2023-02-08T00:03:20;-1.40;99.90
18611;DHT22;9435;52.122;5.502;2023-02-08T00:05:48;-1.40;99.90
18611;DHT22;9435;52.122;5.502;2023-02-08T00:08:16;-1.40;99.90
18611;DHT22;9435;52.122;5.502;2023-02-08T00:10:43;-1.40;99.90
18611;DHT22;9435;52.122;5.502;2023-02-08T00:13:10;-1.40;99.90
18611;DHT22;9435;52.122;5.502;2023-02-08T00:15:40;-1.40;99.90
18611;DHT22;9435;52.122;5.502;2023-02-08T00:18:08;-1.50;99.90
18611;DHT22;9435;52.122;5.502;2023-02-08T00:20:37;-1.50;99.90
18611;DHT22;9435;52.122;5.502;2023-02-08T00:23:04;-1.50;99.90
18611;DHT22;9435;52.122;5.502;2023-02-08T00:25:33;-1.60;99.90
18611;DHT22;9435;52.122;5.502;2023-02-08T00:28:01;-1.60;99.90
18611;DHT22;9435;52.122;5.502;2023-02-08T00:30:28;-1.60;99.90
18611;DHT22;9435;52.122;5.502;2023-02-08T00:32:55;-1.60;99.90
18611;DHT22;9435;52.122;5.502;2023-02-08T00:35:22;-1.60;99.90
18611;DHT22;9435;52.122;5.502;2023-02-08T00:37:49;-1.60;99.90
18611;DHT22;9435;52.122;5.502;2023-02-08T00:40:16;-1.60;99.90
18611;DHT22;9435;52.122;5.502;2023-02-08T00:42:44;-1.60;99.90
18611;DHT22;9435;52.122;5.502;2023-02-08T00:45:12;-1.70;99.90
18611;DHT22;9435;52.122;5.502;2023-02-08T00:47:39;-1.70;99.90
18611;DHT22;9435;52.122;5.502;2023-02-08T00:50:06;-1.80;99.90
18611;DHT22;9435;52.122;5.502;2023-02-08T00:52:33;-1.80;99.90
18611;DHT22;9435;52.122;5.502;2023-02-08T00:55:00;-1.80;99.90
18611;DHT22;9435;52.122;5.502;2023-02-08T00:57:27;-1.90;99.90
18611;DHT22;9435;52.122;5.502;2023-02-08T00:59:56;-1.80;99.90
18611;DHT22;9435;52.122;5.502;2023-02-08T01:02:23;-1.90;99.90
18611;DHT22;9435;52.122;5.502;2023-02-08T01:04:50;-1.90;99.90
18611;DHT22;9435;52.122;5.502;2023-02-08T01:07:17;-2.00;99.90
18611;DHT22;9435;52.122;5.502;2023-02-08T01:09:44;-2.10;99.90
18611;DHT22;9435;52.122;5.502;2023-02-08T01:12:11;-2.10;99.90
18611;DHT22;9435;52.122;5.502;2023-02-08T01:14:38;-2.10;99.90
18611;DHT22;9435;52.122;5.502;2023-02-08T01:17:07;-2.00;99.90
18611;DHT22;9435;52.122;5.502;2023-02-08T01:19:34;-2.00;99.90
18611;DHT22;9435;52.122;5.502;2023-02-08T01:22:01;-2.00;99.90
18611;DHT22;9435;52.122;5.502;2023-02-08T01:24:28;-2.00;99.90
18611;DHT22;9435;52.122;5.502;2023-02-08T01:26:55;-2.10;99.90
18611;DHT22;9435;52.122;5.502;2023-02-08T01:29:23;-2.30;99.90
18611;DHT22;9435;52.122;5.502;2023-02-08T01:31:50;-2.30;99.90
18611;DHT22;9435;52.122;5.502;2023-02-08T01:34:19;-2.30;99.90
18611;DHT22;9435;52.122;5.502;2023-02-08T01:36:46;-2.50;99.90
18611;DHT22;9435;52.122;5.502;2023-02-08T01:39:13;-2.40;99.90
18611;DHT22;9435;52.122;5.502;2023-02-08T01:41:41;-2.40;99.90
18611;DHT22;9435;52.122;5.502;2023-02-08T01:47:09;-2.40;99.90
18611;DHT22;9435;52.122;5.502;2023-02-08T01:49:38;-2.30;99.90
18611;DHT22;9435;52.122;5.502;2023-02-08T01:52:09;-2.40;99.90
18611;DHT22;9435;52.122;5.502;2023-02-08T01:54:42;-2.40;99.90
18611;DHT22;9435;52.122;5.502;2023-02-08T01:57:10;-2.50;99.90
18611;DHT22;9435;52.122;5.502;2023-02-08T01:59:39;-2.40;99.90
18611;DHT22;9435;52.122;5.502;2023-02-08T02:02:12;-2.40;99.90
18611;DHT22;9435;52.122;5.502;2023-02-08T02:04:41;-2.30;99.90
18611;DHT22;9435;52.122;5.502;2023-02-08T02:07:09;-2.30;99.90
18611;DHT22;9435;52.122;5.502;2023-02-08T02:09:41;-2.30;99.90
18611;DHT22;9435;52.122;5.502;2023-02-08T02:12:08;-2.20;99.90
18611;DHT22;9435;52.122;5.502;2023-02-08T02:14:37;-2.20;99.90
18611;DHT22;9435;52.122;5.502;2023-02-08T02:17:04;-2.30;99.90
18611;DHT22;9435;52.122;5.502;2023-02-08T02:19:43;-2.30;99.90
18611;DHT22;9435;52.122;5.502;2023-02-08T02:22:43;-2.30;99.90
18611;DHT22;9435;52.122;5.502;2023-02-08T02:29:00;-2.30;99.90
18611;DHT22;9435;52.122;5.502;2023-02-08T02:31:48;-2.30;99.90
18611;DHT22;9435;52.122;5.502;2023-02-08T02:34:24;-2.40;99.90
18611;DHT22;9435;52.122;5.502;2023-02-08T02:36:58;-2.40;99.90
18611;DHT22;9435;52.122;5.502;2023-02-08T02:39:33;-2.60;99.90
18611;DHT22;9435;52.122;5.502;2023-02-08T02:42:08;-2.70;99.90
18611;DHT22;9435;52.122;5.502;2023-02-08T02:45:03;-2.80;99.90
18611;DHT22;9435;52.122;5.502;2023-02-08T02:47:39;-2.70;99.90
18611;DHT22;9435;52.122;5.502;2023-02-08T02:50:13;-2.70;99.90
18611;DHT22;9435;52.122;5.502;2023-02-08T02:52:47;-2.70;99.90
18611;DHT22;9435;52.122;5.502;2023-02-08T02:55:21;-2.60;99.90
18611;DHT22;9435;52.122;5.502;2023-02-08T02:57:50;-2.60;99.90
18611;DHT22;9435;52.122;5.502;2023-02-08T03:00:22;-2.60;99.90
18611;DHT22;9435;52.122;5.502;2023-02-08T03:02:52;-2.60;99.90
18611;DHT22;9435;52.122;5.502;2023-02-08T03:05:20;-2.50;99.90
18611;DHT22;9435;52.122;5.502;2023-02-08T03:08:30;-2.50;99.90
18611;DHT22;9435;52.122;5.502;2023-02-08T03:11:14;-2.50;99.90
18611;DHT22;9435;52.122;5.502;2023-02-08T03:14:05;-2.60;99.90
18611;DHT22;9435;52.122;5.502;2023-02-08T03:16:49;-2.60;99.90
18611;DHT22;9435;52.122;5.502;2023-02-08T03:19:24;-2.60;99.90
18611;DHT22;9435;52.122;5.502;2023-02-08T03:21:56;-2.60;99.90
18611;DHT22;9435;52.122;5.502;2023-02-08T03:24:28;-2.60;99.90
18611;DHT22;9435;52.122;5.502;2023-02-08T03:27:03;-2.70;99.90
18611;DHT22;9435;52.122;5.502;2023-02-08T03:29:39;-2.60;99.90
18611;DHT22;9435;52.122;5.502;2023-02-08T03:32:10;-2.50;99.90
18611;DHT22;9435;52.122;5.502;2023-02-08T03:34:46;-2.60;99.90
18611;DHT22;9435;52.122;5.502;2023-02-08T03:37:18;-2.60;99.90
18611;DHT22;9435;52.122;5.502;2023-02-08T03:39:48;-2.70;99.90
18611;DHT22;9435;52.122;5.502;2023-02-08T03:42:19;-2.60;99.90
18611;DHT22;9435;52.122;5.502;2023-02-08T03:44:52;-2.70;99.90
18611;DHT22;9435;52.122;5.502;2023-02-08T03:47:23;-2.70;99.90
18611;DHT22;9435;52.122;5.502;2023-02-08T03:49:54;-2.70;99.90
18611;DHT22;9435;52.122;5.502;2023-02-08T03:52:23;-2.60;99.90
18611;DHT22;9435;52.122;5.502;2023-02-08T03:54:54;-2.70;99.90
18611;DHT22;9435;52.122;5.502;2023-02-08T03:57:25;-2.70;99.90
18611;DHT22;9435;52.122;5.502;2023-02-08T03:59:55;-2.70;99.90
18611;DHT22;9435;52.122;5.502;2023-02-08T04:02:26;-2.70;99.90
18611;DHT22;9435;52.122;5.502;2023-02-08T04:04:55;-2.80;99.90
18611;DHT22;9435;52.122;5.502;2023-02-08T04:07:23;-2.80;99.90
18611;DHT22;9435;52.122;5.502;2023-02-08T04:09:50;-2.80;99.90
18611;DHT22;9435;52.122;5.502;2023-02-08T04:12:18;-2.80;99.90
18611;DHT22;9435;52.122;5.502;2023-02-08T04:14:45;-2.80;99.90
18611;DHT22;9435;52.122;5.502;2023-02-08T04:17:12;-2.90;99.90
18611;DHT22;9435;52.122;5.502;2023-02-08T04:19:39;-2.90;99.90
18611;DHT22;9435;52.122;5.502;2023-02-08T04:22:08;-2.90;99.90
18611;DHT22;9435;52.122;5.502;2023-02-08T04:24:35;-2.90;99.90
18611;DHT22;9435;52.122;5.502;2023-02-08T04:27:06;-2.90;99.90
18611;DHT22;9435;52.122;5.502;2023-02-08T04:29:33;-3.00;99.90
18611;DHT22;9435;52.122;5.502;2023-02-08T04:32:00;-3.00;99.90
18611;DHT22;9435;52.122;5.502;2023-02-08T04:34:28;-2.90;99.90
18611;DHT22;9435;52.122;5.502;2023-02-08T04:36:55;-3.00;99.90
18611;DHT22;9435;52.122;5.502;2023-02-08T04:39:24;-3.00;99.90
18611;DHT22;9435;52.122;5.502;2023-02-08T04:41:51;-3.00;99.90
18611;DHT22;9435;52.122;5.502;2023-02-08T04:44:18;-3.00;99.90
18611;DHT22;9435;52.122;5.502;2023-02-08T04:46:45;-3.00;99.90
18611;DHT22;9435;52.122;5.502;2023-02-08T04:49:14;-3.10;99.90
18611;DHT22;9435;52.122;5.502;2023-02-08T04:51:41;-3.10;99.90
18611;DHT22;9435;52.122;5.502;2023-02-08T04:54:08;-3.10;99.90
18611;DHT22;9435;52.122;5.502;2023-02-08T04:56:36;-3.10;99.90
18611;DHT22;9435;52.122;5.502;2023-02-08T04:59:03;-3.10;99.90
18611;DHT22;9435;52.122;5.502;2023-02-08T05:01:31;-3.10;99.90
18611;DHT22;9435;52.122;5.502;2023-02-08T05:03:58;-3.10;99.90
18611;DHT22;9435;52.122;5.502;2023-02-08T05:06:25;-3.20;99.90
18611;DHT22;9435;52.122;5.502;2023-02-08T05:08:52;-3.10;99.90
18611;DHT22;9435;52.122;5.502;2023-02-08T05:11:19;-3.20;99.90
18611;DHT22;9435;52.122;5.502;2023-02-08T05:13:48;-3.20;99.90
18611;DHT22;9435;52.122;5.502;2023-02-08T05:16:16;-3.20;99.90
18611;DHT22;9435;52.122;5.502;2023-02-08T05:18:43;-3.20;99.90
18611;DHT22;9435;52.122;5.502;2023-02-08T05:21:10;-3.20;99.90
18611;DHT22;9435;52.122;5.502;2023-02-08T05:23:37;-3.20;99.90
18611;DHT22;9435;52.122;5.502;2023-02-08T05:26:05;-3.20;99.90
18611;DHT22;9435;52.122;5.502;2023-02-08T05:28:32;-3.20;99.90
18611;DHT22;9435;52.122;5.502;2023-02-08T05:31:08;-3.20;99.90
18611;DHT22;9435;52.122;5.502;2023-02-08T05:33:35;-3.20;99.90
18611;DHT22;9435;52.122;5.502;2023-02-08T05:36:03;-3.30;99.90
18611;DHT22;9435;52.122;5.502;2023-02-08T05:38:30;-3.40;99.90
18611;DHT22;9435;52.122;5.502;2023-02-08T05:40:57;-3.30;99.90
18611;DHT22;9435;52.122;5.502;2023-02-08T05:43:24;-3.30;99.90
18611;DHT22;9435;52.122;5.502;2023-02-08T05:45:51;-3.30;99.90
18611;DHT22;9435;52.122;5.502;2023-02-08T05:48:20;-3.30;99.90
18611;DHT22;9435;52.122;5.502;2023-02-08T05:50:47;-3.40;99.90
18611;DHT22;9435;52.122;5.502;2023-02-08T05:53:14;-3.30;99.90
18611;DHT22;9435;52.122;5.502;2023-02-08T05:55:43;-3.30;99.90
18611;DHT22;9435;52.122;5.502;2023-02-08T05:58:10;-3.30;99.90
18611;DHT22;9435;52.122;5.502;2023-02-08T06:00:37;-3.30;99.90
18611;DHT22;9435;52.122;5.502;2023-02-08T06:03:04;-3.40;99.90
18611;DHT22;9435;52.122;5.502;2023-02-08T06:05:33;-3.40;99.90
18611;DHT22;9435;52.122;5.502;2023-02-08T06:08:00;-3.40;99.90
18611;DHT22;9435;52.122;5.502;2023-02-08T06:10:27;-3.40;99.90
18611;DHT22;9435;52.122;5.502;2023-02-08T06:12:54;-3.40;99.90
18611;DHT22;9435;52.122;5.502;2023-02-08T06:15:22;-3.40;99.90
18611;DHT22;9435;52.122;5.502;2023-02-08T06:17:49;-3.40;99.90
18611;DHT22;9435;52.122;5.502;2023-02-08T06:20:17;-3.40;99.90
18611;DHT22;9435;52.122;5.502;2023-02-08T06:22:46;-3.50;99.90
18611;DHT22;9435;52.122;5.502;2023-02-08T06:25:13;-3.40;99.90
18611;DHT22;9435;52.122;5.502;2023-02-08T06:27:40;-3.40;99.90
18611;DHT22;9435;52.122;5.502;2023-02-08T06:30:08;-3.40;99.90
18611;DHT22;9435;52.122;5.502;2023-02-08T06:32:35;-3.50;99.90
18611;DHT22;9435;52.122;5.502;2023-02-08T06:35:02;-3.40;99.90
18611;DHT22;9435;52.122;5.502;2023-02-08T06:37:29;-3.40;99.90
18611;DHT22;9435;52.122;5.502;2023-02-08T06:39:58;-3.40;99.90
18611;DHT22;9435;52.122;5.502;2023-02-08T06:42:26;-3.50;99.90
18611;DHT22;9435;52.122;5.502;2023-02-08T06:44:53;-3.40;99.90
18611;DHT22;9435;52.122;5.502;2023-02-08T06:47:22;-3.40;99.90
18611;DHT22;9435;52.122;5.502;2023-02-08T06:49:49;-3.40;99.90
18611;DHT22;9435;52.122;5.502;2023-02-08T06:52:17;-3.40;99.90
18611;DHT22;9435;52.122;5.502;2023-02-08T06:54:44;-3.50;99.90
18611;DHT22;9435;52.122;5.502;2023-02-08T06:57:13;-3.50;99.90
18611;DHT22;9435;52.122;5.502;2023-02-08T06:59:40;-3.40;99.90
18611;DHT22;9435;52.122;5.502;2023-02-08T07:02:11;-3.50;99.90
18611;DHT22;9435;52.122;5.502;2023-02-08T07:04:39;-3.40;99.90
18611;DHT22;9435;52.122;5.502;2023-02-08T07:07:06;-3.40;99.90
18611;DHT22;9435;52.122;5.502;2023-02-08T07:09:33;-3.50;99.90
18611;DHT22;9435;52.122;5.502;2023-02-08T07:12:01;-3.50;99.90
18611;DHT22;9435;52.122;5.502;2023-02-08T07:14:31;-3.50;99.90
18611;DHT22;9435;52.122;5.502;2023-02-08T07:16:59;-3.50;99.90
18611;DHT22;9435;52.122;5.502;2023-02-08T07:19:26;-3.50;99.90
18611;DHT22;9435;52.122;5.502;2023-02-08T07:21:54;-3.50;99.90
18611;DHT22;9435;52.122;5.502;2023-02-08T07:24:21;-3.40;99.90
18611;DHT22;9435;52.122;5.502;2023-02-08T07:26:48;-3.40;99.90
18611;DHT22;9435;52.122;5.502;2023-02-08T07:29:15;-3.50;99.90
18611;DHT22;9435;52.122;5.502;2023-02-08T07:31:44;-3.50;99.90
18611;DHT22;9435;52.122;5.502;2023-02-08T07:34:11;-3.40;99.90
18611;DHT22;9435;52.122;5.502;2023-02-08T07:36:38;-3.40;99.90
18611;DHT22;9435;52.122;5.502;2023-02-08T07:39:05;-3.50;99.90
18611;DHT22;9435;52.122;5.502;2023-02-08T07:41:32;-3.40;99.90
18611;DHT22;9435;52.122;5.502;2023-02-08T07:43:59;-3.30;99.90
18611;DHT22;9435;52.122;5.502;2023-02-08T07:46:26;-3.30;99.90
18611;DHT22;9435;52.122;5.502;2023-02-08T07:48:55;-3.20;99.90
18611;DHT22;9435;52.122;5.502;2023-02-08T07:51:22;-3.10;99.90
18611;DHT22;9435;52.122;5.502;2023-02-08T07:53:49;-3.00;99.90
18611;DHT22;9435;52.122;5.502;2023-02-08T07:56:16;-2.80;99.90
18611;DHT22;9435;52.122;5.502;2023-02-08T07:58:43;-2.80;99.90
18611;DHT22;9435;52.122;5.502;2023-02-08T08:01:10;-2.70;99.90
18611;DHT22;9435;52.122;5.502;2023-02-08T08:03:38;-2.50;99.90
18611;DHT22;9435;52.122;5.502;2023-02-08T08:06:06;-2.40;99.90
18611;DHT22;9435;52.122;5.502;2023-02-08T08:08:33;-2.30;99.90
18611;DHT22;9435;52.122;5.502;2023-02-08T08:11:00;-2.20;99.90
18611;DHT22;9435;52.122;5.502;2023-02-08T08:13:27;-2.00;99.90
18611;DHT22;9435;52.122;5.502;2023-02-08T08:15:54;-1.90;99.90
18611;DHT22;9435;52.122;5.502;2023-02-08T08:18:21;-1.80;99.90
18611;DHT22;9435;52.122;5.502;2023-02-08T08:20:48;-1.80;99.90
18611;DHT22;9435;52.122;5.502;2023-02-08T08:23:17;-1.70;99.90
18611;DHT22;9435;52.122;5.502;2023-02-08T08:25:44;-1.70;99.90
18611;DHT22;9435;52.122;5.502;2023-02-08T08:28:11;-1.60;99.90
18611;DHT22;9435;52.122;5.502;2023-02-08T08:30:41;-1.60;99.90
18611;DHT22;9435;52.122;5.502;2023-02-08T08:33:09;-1.50;99.90
18611;DHT22;9435;52.122;5.502;2023-02-08T08:35:36;-1.40;99.90
18611;DHT22;9435;52.122;5.502;2023-02-08T08:38:03;-1.30;99.90
18611;DHT22;9435;52.122;5.502;2023-02-08T08:40:31;-1.20;99.90
18611;DHT22;9435;52.122;5.502;2023-02-08T08:42:58;-1.20;99.90
18611;DHT22;9435;52.122;5.502;2023-02-08T08:45:26;-1.00;99.90
18611;DHT22;9435;52.122;5.502;2023-02-08T08:47:53;-1.00;99.90
18611;DHT22;9435;52.122;5.502;2023-02-08T08:50:20;-0.90;99.90
18611;DHT22;9435;52.122;5.502;2023-02-08T08:52:47;-0.80;99.90
18611;DHT22;9435;52.122;5.502;2023-02-08T08:55:14;-0.80;99.90
18611;DHT22;9435;52.122;5.502;2023-02-08T08:57:43;-0.80;99.90
18611;DHT22;9435;52.122;5.502;2023-02-08T09:00:11;-0.80;99.90
18611;DHT22;9435;52.122;5.502;2023-02-08T09:02:38;-0.70;99.90
18611;DHT22;9435;52.122;5.502;2023-02-08T09:05:05;-0.70;99.90
18611;DHT22;9435;52.122;5.502;2023-02-08T09:07:33;-0.70;99.90
18611;DHT22;9435;52.122;5.502;2023-02-08T09:10:00;-0.60;99.90
18611;DHT22;9435;52.122;5.502;2023-02-08T09:12:28;-0.60;99.90
18611;DHT22;9435;52.122;5.502;2023-02-08T09:14:56;-0.50;99.90
18611;DHT22;9435;52.122;5.502;2023-02-08T09:17:23;-0.40;99.90
18611;DHT22;9435;52.122;5.502;2023-02-08T09:19:50;-0.30;99.90
18611;DHT22;9435;52.122;5.502;2023-02-08T09:22:18;-0.20;99.90
18611;DHT22;9435;52.122;5.502;2023-02-08T09:24:45;-0.20;99.90
18611;DHT22;9435;52.122;5.502;2023-02-08T09:27:12;-0.20;99.90
18611;DHT22;9435;52.122;5.502;2023-02-08T09:29:39;-0.10;99.90
18611;DHT22;9435;52.122;5.502;2023-02-08T09:32:08;0.00;99.90
18611;DHT22;9435;52.122;5.502;2023-02-08T09:34:35;0.00;99.90
18611;DHT22;9435;52.122;5.502;2023-02-08T09:37:02;0.10;99.90
18611;DHT22;9435;52.122;5.502;2023-02-08T09:39:29;0.10;99.90
18611;DHT22;9435;52.122;5.502;2023-02-08T09:42:12;0.30;99.90
18611;DHT22;9435;52.122;5.502;2023-02-08T09:44:53;0.30;99.90
18611;DHT22;9435;52.122;5.502;2023-02-08T09:47:28;0.40;99.90
18611;DHT22;9435;52.122;5.502;2023-02-08T09:49:58;0.50;99.90
18611;DHT22;9435;52.122;5.502;2023-02-08T09:52:34;0.60;99.90
18611;DHT22;9435;52.122;5.502;2023-02-08T09:55:09;0.70;99.90
18611;DHT22;9435;52.122;5.502;2023-02-08T09:57:41;0.80;99.90
18611;DHT22;9435;52.122;5.502;2023-02-08T10:00:13;0.90;99.90
18611;DHT22;9435;52.122;5.502;2023-02-08T10:02:44;1.00;99.90
18611;DHT22;9435;52.122;5.502;2023-02-08T10:05:15;1.00;99.90
18611;DHT22;9435;52.122;5.502;2023-02-08T10:07:45;1.10;99.90
18611;DHT22;9435;52.122;5.502;2023-02-08T10:10:17;1.10;99.90
18611;DHT22;9435;52.122;5.502;2023-02-08T10:12:49;1.20;99.90
18611;DHT22;9435;52.122;5.502;2023-02-08T10:15:32;1.20;99.90
18611;DHT22;9435;52.122;5.502;2023-02-08T10:18:14;1.30;99.90
18611;DHT22;9435;52.122;5.502;2023-02-08T10:20:54;1.40;99.90
18611;DHT22;9435;52.122;5.502;2023-02-08T10:23:39;1.50;99.90
18611;DHT22;9435;52.122;5.502;2023-02-08T10:26:18;1.70;99.90
18611;DHT22;9435;52.122;5.502;2023-02-08T10:29:01;1.70;99.90
18611;DHT22;9435;52.122;5.502;2023-02-08T10:31:54;1.70;99.90
18611;DHT22;9435;52.122;5.502;2023-02-08T10:34:36;1.80;99.90
18611;DHT22;9435;52.122;5.502;2023-02-08T10:37:13;1.90;99.90
18611;DHT22;9435;52.122;5.502;2023-02-08T10:39:41;2.00;99.90
18611;DHT22;9435;52.122;5.502;2023-02-08T10:42:13;2.10;99.90
18611;DHT22;9435;52.122;5.502;2023-02-08T10:44:50;2.10;99.90
18611;DHT22;9435;52.122;5.502;2023-02-08T10:47:31;2.10;99.90
18611;DHT22;9435;52.122;5.502;2023-02-08T10:50:03;2.20;99.90
18611;DHT22;9435;52.122;5.502;2023-02-08T10:52:32;2.20;99.90
18611;DHT22;9435;52.122;5.502;2023-02-08T10:55:00;2.30;99.90
18611;DHT22;9435;52.122;5.502;2023-02-08T10:57:29;2.40;99.90
18611;DHT22;9435;52.122;5.502;2023-02-08T11:00:00;2.40;99.90
18611;DHT22;9435;52.122;5.502;2023-02-08T11:02:31;2.50;99.90
18611;DHT22;9435;52.122;5.502;2023-02-08T11:05:02;2.60;99.90
18611;DHT22;9435;52.122;5.502;2023-02-08T11:07:30;2.60;99.90
18611;DHT22;9435;52.122;5.502;2023-02-08T11:10:14;2.70;99.90
18611;DHT22;9435;52.122;5.502;2023-02-08T11:12:42;2.70;99.90
18611;DHT22;9435;52.122;5.502;2023-02-08T11:15:24;2.80;99.90
18611;DHT22;9435;52.122;5.502;2023-02-08T11:17:54;2.90;99.90
18611;DHT22;9435;52.122;5.502;2023-02-08T11:20:28;2.90;99.90
18611;DHT22;9435;52.122;5.502;2023-02-08T11:22:57;3.10;99.90
18611;DHT22;9435;52.122;5.502;2023-02-08T11:25:34;3.20;99.90
18611;DHT22;9435;52.122;5.502;2023-02-08T11:28:01;3.20;99.90
18611;DHT22;9435;52.122;5.502;2023-02-08T11:30:28;3.30;99.90
18611;DHT22;9435;52.122;5.502;2023-02-08T11:33:17;3.40;99.90
18611;DHT22;9435;52.122;5.502;2023-02-08T11:36:01;3.30;99.90
18611;DHT22;9435;52.122;5.502;2023-02-08T11:38:30;3.50;99.90
18611;DHT22;9435;52.122;5.502;2023-02-08T11:41:00;3.60;99.90
18611;DHT22;9435;52.122;5.502;2023-02-08T11:43:29;3.60;99.90
18611;DHT22;9435;52.122;5.502;2023-02-08T11:45:58;3.70;99.90
18611;DHT22;9435;52.122;5.502;2023-02-08T11:48:33;3.70;99.90
18611;DHT22;9435;52.122;5.502;2023-02-08T11:51:03;3.80;99.90
18611;DHT22;9435;52.122;5.502;2023-02-08T11:53:33;3.80;99.90
18611;DHT22;9435;52.122;5.502;2023-02-08T11:56:09;3.90;99.90
18611;DHT22;9435;52.122;5.502;2023-02-08T11:58:40;4.00;99.90
18611;DHT22;9435;52.122;5.502;2023-02-08T12:01:18;4.10;99.90
18611;DHT22;9435;52.122;5.502;2023-02-08T12:03:47;4.20;99.90
18611;DHT22;9435;52.122;5.502;2023-02-08T12:09:26;4.30;99.90
18611;DHT22;9435;52.122;5.502;2023-02-08T12:11:58;4.30;99.90
18611;DHT22;9435;52.122;5.502;2023-02-08T12:14:48;4.30;99.90
18611;DHT22;9435;52.122;5.502;2023-02-08T12:17:40;4.30;99.90
18611;DHT22;9435;52.122;5.502;2023-02-08T12:20:34;4.30;99.90
18611;DHT22;9435;52.122;5.502;2023-02-08T12:23:19;4.30;99.90
18611;DHT22;9435;52.122;5.502;2023-02-08T12:25:58;4.50;99.90
18611;DHT22;9435;52.122;5.502;2023-02-08T12:28:34;4.50;99.90
18611;DHT22;9435;52.122;5.502;2023-02-08T12:31:08;4.50;99.90
18611;DHT22;9435;52.122;5.502;2023-02-08T12:33:49;4.60;99.90
18611;DHT22;9435;52.122;5.502;2023-02-08T12:36:29;4.60;99.90
18611;DHT22;9435;52.122;5.502;2023-02-08T12:39:28;4.70;99.90
18611;DHT22;9435;52.122;5.502;2023-02-08T12:42:33;4.80;99.90
18611;DHT22;9435;52.122;5.502;2023-02-08T12:45:13;4.90;99.90
18611;DHT22;9435;52.122;5.502;2023-02-08T12:47:56;4.90;99.90
18611;DHT22;9435;52.122;5.502;2023-02-08T12:50:28;4.90;99.90
18611;DHT22;9435;52.122;5.502;2023-02-08T12:53:00;4.90;99.90
18611;DHT22;9435;52.122;5.502;2023-02-08T12:55:29;4.90;99.90
18611;DHT22;9435;52.122;5.502;2023-02-08T12:58:05;5.00;99.90
18611;DHT22;9435;52.122;5.502;2023-02-08T13:00:36;5.00;99.90
18611;DHT22;9435;52.122;5.502;2023-02-08T13:03:08;5.00;99.90
18611;DHT22;9435;52.122;5.502;2023-02-08T13:05:38;5.00;99.90
18611;DHT22;9435;52.122;5.502;2023-02-08T13:08:14;4.90;99.90
18611;DHT22;9435;52.122;5.502;2023-02-08T13:10:48;4.90;99.90
18611;DHT22;9435;52.122;5.502;2023-02-08T13:13:24;5.10;99.90
18611;DHT22;9435;52.122;5.502;2023-02-08T13:15:56;5.10;99.90
18611;DHT22;9435;52.122;5.502;2023-02-08T13:18:28;5.10;99.90
18611;DHT22;9435;52.122;5.502;2023-02-08T13:20:58;5.20;99.90
18611;DHT22;9435;52.122;5.502;2023-02-08T13:23:28;5.30;99.90
18611;DHT22;9435;52.122;5.502;2023-02-08T13:25:59;5.30;99.90
18611;DHT22;9435;52.122;5.502;2023-02-08T13:28:29;5.30;99.90
18611;DHT22;9435;52.122;5.502;2023-02-08T13:31:00;5.30;99.90
18611;DHT22;9435;52.122;5.502;2023-02-08T13:33:35;5.50;99.90
18611;DHT22;9435;52.122;5.502;2023-02-08T13:36:04;5.40;99.90
18611;DHT22;9435;52.122;5.502;2023-02-08T13:38:33;5.30;99.90
18611;DHT22;9435;52.122;5.502;2023-02-08T13:41:04;5.40;99.90
18611;DHT22;9435;52.122;5.502;2023-02-08T13:43:36;5.50;99.90
18611;DHT22;9435;52.122;5.502;2023-02-08T13:46:04;5.40;99.90
18611;DHT22;9435;52.122;5.502;2023-02-08T13:48:42;5.40;99.90
18611;DHT22;9435;52.122;5.502;2023-02-08T13:51:49;5.40;99.90
18611;DHT22;9435;52.122;5.502;2023-02-08T13:54:17;5.50;99.90
18611;DHT22;9435;52.122;5.502;2023-02-08T13:56:46;5.50;99.90
18611;DHT22;9435;52.122;5.502;2023-02-08T13:59:42;5.50;99.90
18611;DHT22;9435;52.122;5.502;2023-02-08T14:02:32;5.50;99.90
18611;DHT22;9435;52.122;5.502;2023-02-08T14:05:33;5.70;99.90
18611;DHT22;9435;52.122;5.502;2023-02-08T14:08:02;5.80;99.90
18611;DHT22;9435;52.122;5.502;2023-02-08T14:10:36;5.80;99.90
18611;DHT22;9435;52.122;5.502;2023-02-08T14:13:18;5.80;99.90
18611;DHT22;9435;52.122;5.502;2023-02-08T14:18:59;5.60;99.90
18611;DHT22;9435;52.122;5.502;2023-02-08T14:21:33;5.70;99.90
18611;DHT22;9435;52.122;5.502;2023-02-08T14:24:04;5.70;99.90
18611;DHT22;9435;52.122;5.502;2023-02-08T14:26:32;5.70;99.90
18611;DHT22;9435;52.122;5.502;2023-02-08T14:29:02;5.60;99.90
18611;DHT22;9435;52.122;5.502;2023-02-08T14:31:42;5.70;99.90
18611;DHT22;9435;52.122;5.502;2023-02-08T14:34:22;5.80;99.90
18611;DHT22;9435;52.122;5.502;2023-02-08T14:37:01;5.90;99.90
18611;DHT22;9435;52.122;5.502;2023-02-08T14:39:30;5.80;99.90
18611;DHT22;9435;52.122;5.502;2023-02-08T14:42:00;5.80;99.90
18611;DHT22;9435;52.122;5.502;2023-02-08T14:45:00;5.80;99.90
18611;DHT22;9435;52.122;5.502;2023-02-08T14:48:00;5.80;99.90
18611;DHT22;9435;52.122;5.502;2023-02-08T14:50:41;5.80;99.90
18611;DHT22;9435;52.122;5.502;2023-02-08T14:53:23;5.70;99.90
18611;DHT22;9435;52.122;5.502;2023-02-08T14:55:55;5.70;99.90
18611;DHT22;9435;52.122;5.502;2023-02-08T14:58:28;5.70;99.90
18611;DHT22;9435;52.122;5.502;2023-02-08T15:01:01;5.60;99.90
18611;DHT22;9435;52.122;5.502;2023-02-08T15:03:32;5.70;99.90
18611;DHT22;9435;52.122;5.502;2023-02-08T15:09:02;5.70;99.90
18611;DHT22;9435;52.122;5.502;2023-02-08T15:11:32;5.80;99.90
18611;DHT22;9435;52.122;5.502;2023-02-08T15:14:02;5.80;99.90
18611;DHT22;9435;52.122;5.502;2023-02-08T15:16:33;5.90;99.90
18611;DHT22;9435;52.122;5.502;2023-02-08T15:19:04;5.80;99.90
18611;DHT22;9435;52.122;5.502;2023-02-08T15:21:33;5.80;99.90
18611;DHT22;9435;52.122;5.502;2023-02-08T15:24:10;5.80;99.90
18611;DHT22;9435;52.122;5.502;2023-02-08T15:26:43;5.80;99.90
18611;DHT22;9435;52.122;5.502;2023-02-08T15:29:18;5.70;99.90
18611;DHT22;9435;52.122;5.502;2023-02-08T15:31:46;5.70;99.90
18611;DHT22;9435;52.122;5.502;2023-02-08T15:34:15;5.70;99.90
18611;DHT22;9435;52.122;5.502;2023-02-08T15:36:47;5.70;99.90
18611;DHT22;9435;52.122;5.502;2023-02-08T15:39:24;5.70;99.90
18611;DHT22;9435;52.122;5.502;2023-02-08T15:41:55;5.60;99.90
18611;DHT22;9435;52.122;5.502;2023-02-08T15:44:25;5.60;99.90
18611;DHT22;9435;52.122;5.502;2023-02-08T15:46:56;5.60;99.90
18611;DHT22;9435;52.122;5.502;2023-02-08T15:49:30;5.60;99.90
18611;DHT22;9435;52.122;5.502;2023-02-08T15:51:58;5.50;99.90
18611;DHT22;9435;52.122;5.502;2023-02-08T15:54:26;5.40;99.90
18611;DHT22;9435;52.122;5.502;2023-02-08T15:56:55;5.40;99.90
18611;DHT22;9435;52.122;5.502;2023-02-08T15:59:25;5.40;99.90
18611;DHT22;9435;52.122;5.502;2023-02-08T16:01:54;5.30;99.90
18611;DHT22;9435;52.122;5.502;2023-02-08T16:04:23;5.20;99.90
18611;DHT22;9435;52.122;5.502;2023-02-08T16:06:54;5.20;99.90
18611;DHT22;9435;52.122;5.502;2023-02-08T16:09:24;5.20;99.90
18611;DHT22;9435;52.122;5.502;2023-02-08T16:11:57;5.10;99.90
18611;DHT22;9435;52.122;5.502;2023-02-08T16:14:25;5.10;99.90
18611;DHT22;9435;52.122;5.502;2023-02-08T16:16:54;4.90;99.90
18611;DHT22;9435;52.122;5.502;2023-02-08T16:19:24;4.80;99.90
18611;DHT22;9435;52.122;5.502;2023-02-08T16:21:54;4.80;99.90
18611;DHT22;9435;52.122;5.502;2023-02-08T16:24:24;4.70;99.90
18611;DHT22;9435;52.122;5.502;2023-02-08T16:27:01;4.60;99.90
18611;DHT22;9435;52.122;5.502;2023-02-08T16:29:30;4.60;99.90
18611;DHT22;9435;52.122;5.502;2023-02-08T16:32:01;4.50;99.90
18611;DHT22;9435;52.122;5.502;2023-02-08T16:34:30;4.40;99.90